Time,TemperatureF,DewpointF,PressureIn,WindDirection,WindDirectionDegrees,WindSpeedMPH,WindSpeedGustMPH,Humidity,HourlyPrecipIn,Conditions,Clouds,dailyrainin,SoftwareType,DateUTC
2013-02-17 00:19:00,30.2,26.8,29.63,NNW,348,1.1,1.1,87,0.00,,,0.04,WeatherDisplay:10.37,2013-02-17 05:19:00,
2013-02-17 00:24:00,30.3,26.9,29.63,NE,39,2.3,2.3,87,0.00,,,0.04,WeatherDisplay:10.37,2013-02-17 05:24:00,
2013-02-17 00:29:00,30.3,26.9,29.63,NNW,348,3.5,3.5,87,0.00,,,0.04,WeatherDisplay:10.37,2013-02-17 05:29:00,
2013-02-17 00:36:00,30.3,26.9,29.63,NE,55,6.9,6.9,87,0.00,,,0.04,WeatherDisplay:10.37,2013-02-17 05:36:00,
2013-02-17 00:41:00,30.4,27.0,29.63,North,350,4.6,4.6,87,0.00,,,0.04,WeatherDisplay:10.37,2013-02-17 05:41:00,
2013-02-17 00:46:00,30.4,27.0,29.63,East,91,3.5,3.5,87,0.00,,,0.04,WeatherDisplay:10.37,2013-02-17 05:46:00,
2013-02-17 00:52:00,30.3,26.9,29.63,NNE,18,3.0,9.0,87,0.00,,,0.04,WeatherDisplay:10.37,2013-02-17 05:52:00,
2013-02-17 00:57:00,30.2,26.8,29.62,ENE,68,3.5,3.5,87,0.00,,,0.04,WeatherDisplay:10.37,2013-02-17 05:57:00,
2013-02-17 01:02:00,30.2,27.1,29.62,SSE,163,2.3,2.3,88,0.00,,,0.04,WeatherDisplay:10.37,2013-02-17 06:02:00,
2013-02-17 01:03:00,30.1,27.0,29.62,NNW,337,2.0,9.0,88,0.00,CLR,,0.00,WeatherDisplay:10.37,2013-02-17 06:03:00,
2013-02-17 01:07:00,30.1,27.0,29.62,NNE,26,3.5,3.5,88,0.00,,,0.04,WeatherDisplay:10.37,2013-02-17 06:07:00,
2013-02-17 01:08:00,30.1,27.0,29.62,NNE,25,2.0,9.0,88,0.00,CLR,,0.00,WeatherDisplay:10.37,2013-02-17 06:08:00,
2013-02-17 01:12:00,30.0,26.9,29.61,NE,53,10.4,10.4,88,0.00,,,0.04,WeatherDisplay:10.37,2013-02-17 06:12:00,
2013-02-17 01:13:00,30.1,27.0,29.62,NE,45,2.0,9.0,88,0.00,CLR,,0.00,WeatherDisplay:10.37,2013-02-17 06:13:00,
2013-02-17 01:17:00,29.8,27.0,29.61,North,360,3.5,3.5,89,0.00,,,0.04,WeatherDisplay:10.37,2013-02-17 06:17:00,
2013-02-17 01:18:00,30.1,27.0,29.62,NE,45,2.0,9.0,88,0.00,CLR,,0.00,WeatherDisplay:10.37,2013-02-17 06:18:00,
2013-02-17 01:22:00,29.6,27.0,29.61,NE,44,1.1,0.0,90,0.00,,,0.04,WeatherDisplay:10.37,2013-02-17 06:22:00,
2013-02-17 01:23:00,30.1,27.0,29.62,NE,45,2.0,9.0,88,0.00,CLR,,0.00,WeatherDisplay:10.37,2013-02-17 06:23:00,
2013-02-17 01:27:00,29.4,26.6,29.60,NNE,19,0.0,0.0,89,0.00,,,0.04,WeatherDisplay:10.37,2013-02-17 06:27:00,
2013-02-17 01:28:00,30.1,27.0,29.62,NE,45,2.0,9.0,88,0.00,CLR,,0.00,WeatherDisplay:10.37,2013-02-17 06:28:00,
2013-02-17 01:32:00,29.2,26.6,29.60,NE,41,3.5,3.5,90,0.00,,,0.04,WeatherDisplay:10.37,2013-02-17 06:32:00,
2013-02-17 01:37:00,29.0,26.4,29.59,North,360,3.5,3.5,90,0.00,,,0.04,WeatherDisplay:10.37,2013-02-17 06:37:00,
2013-02-17 01:42:00,28.9,26.3,29.60,East,99,2.3,2.3,90,0.00,,,0.04,WeatherDisplay:10.37,2013-02-17 06:42:00,
2013-02-17 01:47:00,28.7,26.1,29.60,NNE,19,6.9,6.9,90,0.00,,,0.04,WeatherDisplay:10.37,2013-02-17 06:47:00,
2013-02-17 01:52:00,28.3,25.7,29.60,NE,46,3.5,3.5,90,0.00,,,0.04,WeatherDisplay:10.37,2013-02-17 06:52:00,
2013-02-17 01:57:00,28.0,25.4,29.60,NNE,32,5.8,5.8,90,0.00,,,0.04,WeatherDisplay:10.37,2013-02-17 06:57:00,
2013-02-17 02:02:00,27.8,25.5,29.60,NNE,32,3.5,3.5,91,0.00,,,0.04,WeatherDisplay:10.37,2013-02-17 07:02:00,
2013-02-17 02:03:00,27.5,25.5,29.59,NNE,31,2.0,12.0,92,0.00,CLR,,0.00,WeatherDisplay:10.37,2013-02-17 07:03:00,
2013-02-17 02:07:00,27.6,25.3,29.60,NNW,344,5.0,5.0,91,0.00,,,0.04,WeatherDisplay:10.37,2013-02-17 07:07:00,
2013-02-17 02:08:00,27.5,25.5,29.59,North,7,2.0,11.0,92,0.00,CLR,,0.00,WeatherDisplay:10.37,2013-02-17 07:08:00,
2013-02-17 02:12:00,27.5,25.5,29.59,North,5,11.5,11.5,92,0.00,,,0.04,WeatherDisplay:10.37,2013-02-17 07:12:00,
2013-02-17 02:13:00,27.5,25.5,29.59,North,0,2.0,11.0,92,0.00,CLR,,0.00,WeatherDisplay:10.37,2013-02-17 07:13:00,
2013-02-17 02:17:00,27.2,25.2,29.59,North,360,6.9,6.9,92,0.00,,,0.04,WeatherDisplay:10.37,2013-02-17 07:17:00,
2013-02-17 02:18:00,27.5,25.5,29.59,North,0,2.0,11.0,92,0.00,CLR,,0.00,WeatherDisplay:10.37,2013-02-17 07:18:00,
2013-02-17 02:22:00,27.0,25.0,29.58,North,9,3.5,3.5,92,0.00,,,0.04,WeatherDisplay:10.37,2013-02-17 07:22:00,
2013-02-17 02:23:00,27.5,25.5,29.59,North,0,2.0,11.0,92,0.00,CLR,,0.00,WeatherDisplay:10.37,2013-02-17 07:23:00,
2013-02-17 02:27:00,26.9,24.9,29.58,East,86,3.5,3.5,92,0.00,,,0.04,WeatherDisplay:10.37,2013-02-17 07:27:00,
2013-02-17 02:28:00,27.5,25.5,29.59,North,0,2.0,11.0,92,0.00,CLR,,0.00,WeatherDisplay:10.37,2013-02-17 07:28:00,
2013-02-17 02:32:00,26.8,24.8,29.57,ENE,67,4.6,4.6,92,0.00,,,0.04,WeatherDisplay:10.37,2013-02-17 07:32:00,
2013-02-17 02:37:00,26.7,24.7,29.56,NE,51,3.5,3.5,92,0.00,,,0.04,WeatherDisplay:10.37,2013-02-17 07:37:00,
2013-02-17 02:42:00,26.6,24.6,29.56,North,360,5.8,5.8,92,0.00,,,0.04,WeatherDisplay:10.37,2013-02-17 07:42:00,
2013-02-17 02:47:00,26.5,24.8,29.56,North,355,3.5,3.5,93,0.00,,,0.04,WeatherDisplay:10.37,2013-02-17 07:47:00,
2013-02-17 02:52:00,26.4,24.7,29.56,NNW,336,4.6,4.6,93,0.00,,,0.04,WeatherDisplay:10.37,2013-02-17 07:52:00,
2013-02-17 02:57:00,26.2,24.5,29.55,NNW,343,3.5,3.5,93,0.00,,,0.04,WeatherDisplay:10.37,2013-02-17 07:57:00,
2013-02-17 03:02:00,26.0,24.3,29.55,North,355,5.0,5.0,93,0.00,,,0.04,WeatherDisplay:10.37,2013-02-17 08:02:00,
2013-02-17 03:03:00,25.8,24.1,29.55,North,353,2.0,12.0,93,0.00,CLR,,0.00,WeatherDisplay:10.37,2013-02-17 08:03:00,
2013-02-17 03:07:00,25.8,24.1,29.55,NE,53,4.6,4.6,93,0.00,,,0.04,WeatherDisplay:10.37,2013-02-17 08:07:00,
2013-02-17 03:08:00,25.8,24.1,29.55,NNW,342,2.0,12.0,93,0.00,CLR,,0.00,WeatherDisplay:10.37,2013-02-17 08:08:00,
2013-02-17 03:12:00,25.7,24.0,29.55,NW,318,4.6,4.6,93,0.00,,,0.04,WeatherDisplay:10.37,2013-02-17 08:12:00,
2013-02-17 03:13:00,25.8,24.1,29.55,NNW,338,2.0,12.0,93,0.00,CLR,,0.00,WeatherDisplay:10.37,2013-02-17 08:13:00,
2013-02-17 03:17:00,25.6,23.9,29.55,NNE,25,5.8,5.8,93,0.00,,,0.04,WeatherDisplay:10.37,2013-02-17 08:17:00,
2013-02-17 03:18:00,25.8,24.1,29.55,NNW,338,2.0,12.0,93,0.00,CLR,,0.00,WeatherDisplay:10.37,2013-02-17 08:18:00,
2013-02-17 03:22:00,25.5,23.8,29.54,NW,321,5.8,5.8,93,0.00,,,0.04,WeatherDisplay:10.37,2013-02-17 08:22:00,
2013-02-17 03:23:00,25.8,24.1,29.55,NNW,338,2.0,12.0,93,0.00,CLR,,0.00,WeatherDisplay:10.37,2013-02-17 08:23:00,
2013-02-17 03:27:00,25.4,23.7,29.53,NNE,23,3.5,3.5,93,0.00,,,0.04,WeatherDisplay:10.37,2013-02-17 08:27:00,
2013-02-17 03:28:00,25.8,24.1,29.55,NNW,338,2.0,12.0,93,0.00,CLR,,0.00,WeatherDisplay:10.37,2013-02-17 08:28:00,
2013-02-17 03:32:00,25.4,23.7,29.53,North,360,9.2,9.2,93,0.00,,,0.04,WeatherDisplay:10.37,2013-02-17 08:32:00,
2013-02-17 03:37:00,25.3,23.6,29.53,NW,323,4.6,4.6,93,0.00,,,0.04,WeatherDisplay:10.37,2013-02-17 08:37:00,
2013-02-17 03:42:00,25.2,23.5,29.52,NW,319,4.6,4.6,93,0.00,,,0.04,WeatherDisplay:10.37,2013-02-17 08:42:00,
2013-02-17 03:47:00,25.1,23.1,29.52,NW,315,6.9,6.9,92,0.00,,,0.04,WeatherDisplay:10.37,2013-02-17 08:47:00,
2013-02-17 03:52:00,25.0,23.0,29.52,NE,34,5.8,5.8,92,0.00,,,0.04,WeatherDisplay:10.37,2013-02-17 08:52:00,
2013-02-17 03:57:00,24.9,22.9,29.52,East,101,6.9,6.9,92,0.00,,,0.04,WeatherDisplay:10.37,2013-02-17 08:57:00,
2013-02-17 04:02:00,24.9,22.6,29.52,North,350,5.8,5.8,91,0.00,,,0.04,WeatherDisplay:10.37,2013-02-17 09:02:00,
2013-02-17 04:03:00,24.9,22.6,29.51,NNW,341,3.0,15.0,91,0.00,CLR,,0.00,WeatherDisplay:10.37,2013-02-17 09:03:00,
2013-02-17 04:07:00,24.9,22.6,29.51,North,5,8.0,8.0,91,0.00,,,0.04,WeatherDisplay:10.37,2013-02-17 09:07:00,
2013-02-17 04:08:00,24.9,22.6,29.51,NNW,340,3.0,15.0,91,0.00,CLR,,0.00,WeatherDisplay:10.37,2013-02-17 09:08:00,
2013-02-17 04:12:00,24.8,22.5,29.51,North,355,9.2,9.2,91,0.00,,,0.04,WeatherDisplay:10.37,2013-02-17 09:12:00,
2013-02-17 04:13:00,24.9,22.6,29.51,NNW,338,3.0,15.0,91,0.00,CLR,,0.00,WeatherDisplay:10.37,2013-02-17 09:13:00,
2013-02-17 04:17:00,24.8,22.5,29.51,NE,36,10.4,10.4,91,0.00,,,0.04,WeatherDisplay:10.37,2013-02-17 09:17:00,
2013-02-17 04:18:00,24.9,22.6,29.51,NNW,338,3.0,15.0,91,0.00,CLR,,0.00,WeatherDisplay:10.37,2013-02-17 09:18:00,
2013-02-17 04:22:00,24.7,22.2,29.52,NW,317,9.2,9.2,90,0.00,,,0.04,WeatherDisplay:10.37,2013-02-17 09:22:00,
2013-02-17 04:23:00,24.9,22.6,29.51,NNW,338,3.0,15.0,91,0.00,CLR,,0.00,WeatherDisplay:10.37,2013-02-17 09:23:00,
2013-02-17 04:27:00,24.5,22.0,29.51,NE,45,5.8,5.8,90,0.00,,,0.04,WeatherDisplay:10.37,2013-02-17 09:27:00,
2013-02-17 04:28:00,24.9,22.6,29.51,NNW,338,3.0,15.0,91,0.00,CLR,,0.00,WeatherDisplay:10.37,2013-02-17 09:28:00,
2013-02-17 04:32:00,24.4,21.9,29.51,North,350,3.5,3.5,90,0.00,,,0.04,WeatherDisplay:10.37,2013-02-17 09:32:00,
2013-02-17 04:37:00,24.3,21.8,29.51,NW,325,9.2,9.2,90,0.00,,,0.04,WeatherDisplay:10.37,2013-02-17 09:37:00,
2013-02-17 04:42:00,24.1,21.3,29.51,NNE,18,6.9,6.9,89,0.00,,,0.04,WeatherDisplay:10.37,2013-02-17 09:42:00,
2013-02-17 04:47:00,24.0,21.2,29.51,North,360,11.5,11.5,89,0.00,,,0.04,WeatherDisplay:10.37,2013-02-17 09:47:00,
2013-02-17 04:52:00,23.8,21.0,29.50,WNW,284,11.5,11.5,89,0.00,,,0.04,WeatherDisplay:10.37,2013-02-17 09:52:00,
2013-02-17 04:57:00,23.7,20.9,29.50,North,5,11.5,11.5,89,0.00,,,0.04,WeatherDisplay:10.37,2013-02-17 09:57:00,
2013-02-17 05:02:00,23.6,20.8,29.49,WNW,302,12.7,12.7,89,0.00,,,0.04,WeatherDisplay:10.37,2013-02-17 10:02:00,
2013-02-17 05:03:00,23.2,20.4,29.49,NNW,348,5.0,15.0,89,0.00,CLR,,0.00,WeatherDisplay:10.37,2013-02-17 10:03:00,
2013-02-17 05:07:00,23.4,20.9,29.49,NNE,32,13.8,13.8,90,0.00,,,0.04,WeatherDisplay:10.37,2013-02-17 10:07:00,
2013-02-17 05:08:00,23.2,20.4,29.49,North,358,5.0,15.0,89,0.00,CLR,,0.00,WeatherDisplay:10.37,2013-02-17 10:08:00,
2013-02-17 05:12:00,23.1,20.6,29.49,North,360,10.4,10.4,90,0.00,,,0.04,WeatherDisplay:10.37,2013-02-17 10:12:00,
2013-02-17 05:13:00,23.2,20.4,29.49,North,0,5.0,15.0,89,0.00,CLR,,0.00,WeatherDisplay:10.37,2013-02-17 10:13:00,
2013-02-17 05:17:00,22.9,20.4,29.48,NNE,14,3.5,3.5,90,0.00,,,0.04,WeatherDisplay:10.37,2013-02-17 10:17:00,
2013-02-17 05:18:00,23.2,20.4,29.49,North,0,5.0,15.0,89,0.00,CLR,,0.00,WeatherDisplay:10.37,2013-02-17 10:18:00,
2013-02-17 05:22:00,22.8,20.6,29.48,NNE,21,5.8,5.8,91,0.00,,,0.04,WeatherDisplay:10.37,2013-02-17 10:22:00,
2013-02-17 05:23:00,23.2,20.4,29.49,North,0,5.0,15.0,89,0.00,CLR,,0.00,WeatherDisplay:10.37,2013-02-17 10:23:00,
2013-02-17 05:27:00,22.7,20.5,29.48,WNW,286,5.0,5.0,91,0.00,,,0.04,WeatherDisplay:10.37,2013-02-17 10:27:00,
2013-02-17 05:28:00,23.2,20.4,29.49,North,0,5.0,15.0,89,0.00,CLR,,0.00,WeatherDisplay:10.37,2013-02-17 10:28:00,
2013-02-17 05:32:00,22.5,20.5,29.48,North,350,3.0,10.0,92,0.00,,,0.04,WeatherDisplay:10.37,2013-02-17 10:32:00,
2013-02-17 05:37:00,22.3,20.3,29.48,NW,325,10.4,10.4,92,0.00,,,0.04,WeatherDisplay:10.37,2013-02-17 10:37:00,
2013-02-17 05:42:00,22.1,20.1,29.47,North,349,3.0,14.0,92,0.00,,,0.04,WeatherDisplay:10.37,2013-02-17 10:42:00,
2013-02-17 05:47:00,22.0,20.0,29.47,North,354,5.0,10.0,92,0.00,,,0.04,WeatherDisplay:10.37,2013-02-17 10:47:00,
2013-02-17 05:52:00,21.7,19.7,29.47,NNW,340,8.1,8.1,92,0.00,,,0.04,WeatherDisplay:10.37,2013-02-17 10:52:00,
2013-02-17 05:57:00,21.6,19.6,29.46,North,360,8.1,8.1,92,0.00,,,0.04,WeatherDisplay:10.37,2013-02-17 10:57:00,
2013-02-17 06:02:00,21.5,19.5,29.45,NW,306,6.9,6.9,92,0.00,,,0.04,WeatherDisplay:10.37,2013-02-17 11:02:00,
2013-02-17 06:03:00,21.3,19.3,29.44,North,0,5.0,17.0,92,0.00,CLR,,0.00,WeatherDisplay:10.37,2013-02-17 11:03:00,
2013-02-17 06:07:00,21.3,19.3,29.44,NNE,30,16.0,16.0,92,0.00,,,0.04,WeatherDisplay:10.37,2013-02-17 11:07:00,
2013-02-17 06:08:00,21.3,19.3,29.44,North,0,5.0,16.0,92,0.00,CLR,,0.00,WeatherDisplay:10.37,2013-02-17 11:08:00,
2013-02-17 06:12:00,21.2,19.2,29.44,NNW,343,13.8,13.8,92,0.00,,,0.04,WeatherDisplay:10.37,2013-02-17 11:12:00,
2013-02-17 06:13:00,21.3,19.3,29.44,North,0,5.0,16.0,92,0.00,CLR,,0.00,WeatherDisplay:10.37,2013-02-17 11:13:00,
2013-02-17 06:17:00,21.0,19.3,29.45,NNW,343,19.6,19.6,93,0.00,,,0.04,WeatherDisplay:10.37,2013-02-17 11:17:00,
2013-02-17 06:18:00,21.3,19.3,29.44,North,0,5.0,16.0,92,0.00,CLR,,0.00,WeatherDisplay:10.37,2013-02-17 11:18:00,
2013-02-17 06:22:00,20.9,19.2,29.45,NNW,331,11.5,11.5,93,0.00,,,0.04,WeatherDisplay:10.37,2013-02-17 11:22:00,
2013-02-17 06:23:00,21.3,19.3,29.44,North,0,5.0,16.0,92,0.00,CLR,,0.00,WeatherDisplay:10.37,2013-02-17 11:23:00,
2013-02-17 06:27:00,21.0,19.3,29.44,NW,310,7.0,7.0,93,0.00,,,0.04,WeatherDisplay:10.37,2013-02-17 11:27:00,
2013-02-17 06:28:00,21.3,19.3,29.44,North,0,5.0,16.0,92,0.00,CLR,,0.00,WeatherDisplay:10.37,2013-02-17 11:28:00,
2013-02-17 06:32:00,20.9,19.2,29.44,North,355,15.0,15.0,93,0.00,,,0.04,WeatherDisplay:10.37,2013-02-17 11:32:00,
2013-02-17 06:37:00,20.8,19.1,29.44,West,267,5.8,5.8,93,0.00,,,0.04,WeatherDisplay:10.37,2013-02-17 11:37:00,
2013-02-17 06:42:00,20.8,19.3,29.44,NW,323,9.2,9.2,94,0.00,,,0.04,WeatherDisplay:10.37,2013-02-17 11:42:00,
2013-02-17 06:47:00,20.7,19.2,29.43,North,5,12.0,12.0,94,0.00,,,0.04,WeatherDisplay:10.37,2013-02-17 11:47:00,
2013-02-17 06:52:00,20.7,19.2,29.43,NNE,24,11.5,11.5,94,0.00,,,0.04,WeatherDisplay:10.37,2013-02-17 11:52:00,
2013-02-17 06:57:00,20.7,19.2,29.43,NNW,333,11.0,11.0,94,0.00,,,0.04,WeatherDisplay:10.37,2013-02-17 11:57:00,
2013-02-17 07:02:00,20.6,19.1,29.42,NW,316,4.6,4.6,94,0.00,,,0.04,WeatherDisplay:10.37,2013-02-17 12:02:00,
2013-02-17 07:03:00,20.6,19.1,29.42,North,353,5.0,19.0,94,0.00,CLR,,0.00,WeatherDisplay:10.37,2013-02-17 12:03:00,
2013-02-17 07:07:00,20.6,19.1,29.42,NNW,335,10.4,10.4,94,0.00,,,0.04,WeatherDisplay:10.37,2013-02-17 12:07:00,
2013-02-17 07:08:00,20.6,19.1,29.42,NNW,342,5.0,17.0,94,0.00,CLR,,0.00,WeatherDisplay:10.37,2013-02-17 12:08:00,
2013-02-17 07:12:00,20.6,19.1,29.42,North,360,9.2,9.2,94,0.00,,,0.04,WeatherDisplay:10.37,2013-02-17 12:12:00,
2013-02-17 07:13:00,20.6,19.1,29.42,NNW,338,5.0,17.0,94,0.00,CLR,,0.00,WeatherDisplay:10.37,2013-02-17 12:13:00,
2013-02-17 07:17:00,20.6,19.1,29.42,West,259,12.7,12.7,94,0.00,,,0.04,WeatherDisplay:10.37,2013-02-17 12:17:00,
2013-02-17 07:18:00,20.6,19.1,29.42,NNW,338,5.0,17.0,94,0.00,CLR,,0.00,WeatherDisplay:10.37,2013-02-17 12:18:00,
2013-02-17 07:22:00,20.6,19.1,29.42,North,360,7.0,7.0,94,0.00,,,0.04,WeatherDisplay:10.37,2013-02-17 12:22:00,
2013-02-17 07:23:00,20.6,19.1,29.42,NNW,338,5.0,17.0,94,0.00,CLR,,0.00,WeatherDisplay:10.37,2013-02-17 12:23:00,
2013-02-17 07:27:00,20.5,19.0,29.41,North,351,10.4,10.4,94,0.00,,,0.04,WeatherDisplay:10.37,2013-02-17 12:27:00,
2013-02-17 07:28:00,20.6,19.1,29.42,NNW,338,5.0,17.0,94,0.00,CLR,,0.00,WeatherDisplay:10.37,2013-02-17 12:28:00,
2013-02-17 07:32:00,20.4,18.9,29.41,NNW,346,12.0,12.0,94,0.00,,,0.04,WeatherDisplay:10.37,2013-02-17 12:32:00,
2013-02-17 07:37:00,20.3,18.8,29.40,NW,323,11.5,11.5,94,0.00,,,0.04,WeatherDisplay:10.37,2013-02-17 12:37:00,
2013-02-17 07:42:00,20.1,18.7,29.40,North,5,10.4,10.4,94,0.00,,,0.04,WeatherDisplay:10.37,2013-02-17 12:42:00,
2013-02-17 07:47:00,20.1,18.7,29.40,NNW,333,11.5,11.5,94,0.00,,,0.04,WeatherDisplay:10.37,2013-02-17 12:47:00,
2013-02-17 07:52:00,20.0,18.6,29.41,NW,314,12.7,12.7,94,0.00,,,0.04,WeatherDisplay:10.37,2013-02-17 12:52:00,
2013-02-17 07:57:00,19.8,18.4,29.41,NNW,329,9.2,9.2,94,0.00,,,0.04,WeatherDisplay:10.37,2013-02-17 12:57:00,
2013-02-17 08:02:00,19.8,18.4,29.41,NE,54,11.5,11.5,94,0.00,,,0.04,WeatherDisplay:10.37,2013-02-17 13:02:00,
2013-02-17 08:03:00,19.8,18.4,29.40,NNW,338,5.0,18.0,94,0.00,CLR,,0.00,WeatherDisplay:10.37,2013-02-17 13:03:00,
2013-02-17 08:07:00,19.8,18.4,29.40,NNW,341,11.5,11.5,94,0.00,,,0.04,WeatherDisplay:10.37,2013-02-17 13:07:00,
2013-02-17 08:08:00,19.8,18.4,29.40,NNW,338,5.0,14.0,94,0.00,CLR,,0.00,WeatherDisplay:10.37,2013-02-17 13:08:00,
2013-02-17 08:12:00,19.7,18.3,29.40,NW,307,4.0,4.0,94,0.00,,,0.04,WeatherDisplay:10.37,2013-02-17 13:12:00,
2013-02-17 08:13:00,19.8,18.4,29.40,NNW,338,5.0,14.0,94,0.00,CLR,,0.00,WeatherDisplay:10.37,2013-02-17 13:13:00,
2013-02-17 08:17:00,19.7,18.3,29.40,North,5,10.4,10.4,94,0.00,,,0.04,WeatherDisplay:10.37,2013-02-17 13:17:00,
2013-02-17 08:18:00,19.8,18.4,29.40,NNW,338,5.0,14.0,94,0.00,CLR,,0.00,WeatherDisplay:10.37,2013-02-17 13:18:00,
2013-02-17 08:22:00,19.7,18.3,29.39,NNW,336,10.4,10.4,94,0.00,,,0.04,WeatherDisplay:10.37,2013-02-17 13:22:00,
2013-02-17 08:23:00,19.8,18.4,29.40,NNW,338,5.0,14.0,94,0.00,CLR,,0.00,WeatherDisplay:10.37,2013-02-17 13:23:00,
2013-02-17 08:27:00,19.7,18.3,29.39,WNW,289,8.0,8.0,94,0.00,,,0.04,WeatherDisplay:10.37,2013-02-17 13:27:00,
2013-02-17 08:28:00,19.8,18.4,29.40,NNW,338,5.0,14.0,94,0.00,CLR,,0.00,WeatherDisplay:10.37,2013-02-17 13:28:00,
2013-02-17 08:32:00,19.7,18.3,29.39,North,360,11.5,11.5,94,0.00,,,0.04,WeatherDisplay:10.37,2013-02-17 13:32:00,
2013-02-17 08:37:00,19.6,18.2,29.38,NNW,339,12.7,12.7,94,0.00,,,0.04,WeatherDisplay:10.37,2013-02-17 13:37:00,
2013-02-17 08:42:00,19.7,18.3,29.38,West,268,10.4,10.4,94,0.00,,,0.04,WeatherDisplay:10.37,2013-02-17 13:42:00,
2013-02-17 08:47:00,19.6,18.2,29.37,NW,326,10.4,10.4,94,0.00,,,0.04,WeatherDisplay:10.37,2013-02-17 13:47:00,
2013-02-17 08:52:00,19.6,18.2,29.37,NW,321,11.5,11.5,94,0.00,,,0.04,WeatherDisplay:10.37,2013-02-17 13:52:00,
2013-02-17 08:57:00,19.5,18.1,29.37,NNE,19,10.4,10.4,94,0.00,,,0.04,WeatherDisplay:10.37,2013-02-17 13:57:00,
2013-02-17 09:02:00,19.4,18.0,29.37,NNE,12,9.0,9.0,94,0.00,,,0.04,WeatherDisplay:10.37,2013-02-17 14:02:00,
2013-02-17 09:03:00,19.4,18.0,29.36,NNW,340,5.0,18.0,94,0.00,CLR,,0.00,WeatherDisplay:10.37,2013-02-17 14:03:00,
2013-02-17 09:07:00,19.4,18.0,29.37,NNW,329,13.8,13.8,94,0.00,,,0.04,WeatherDisplay:10.37,2013-02-17 14:07:00,
2013-02-17 09:08:00,19.4,18.0,29.36,NNW,340,5.0,18.0,94,0.00,CLR,,0.00,WeatherDisplay:10.37,2013-02-17 14:08:00,
2013-02-17 09:12:00,19.4,18.0,29.37,NW,313,10.4,10.4,94,0.00,,,0.04,WeatherDisplay:10.37,2013-02-17 14:12:00,
2013-02-17 09:13:00,19.4,18.0,29.36,NNW,338,5.0,18.0,94,0.00,CLR,,0.00,WeatherDisplay:10.37,2013-02-17 14:13:00,
2013-02-17 09:17:00,19.4,17.7,29.36,NW,304,9.2,9.2,93,0.00,,,0.04,WeatherDisplay:10.37,2013-02-17 14:17:00,
2013-02-17 09:18:00,19.4,18.0,29.36,NNW,338,5.0,18.0,94,0.00,CLR,,0.00,WeatherDisplay:10.37,2013-02-17 14:18:00,
2013-02-17 09:22:00,19.4,19.4,29.36,WNW,302,6.9,6.9,100,0.00,,,0.04,WeatherDisplay:10.37,2013-02-17 14:22:00,
2013-02-17 09:23:00,19.4,18.0,29.36,NNW,338,5.0,18.0,94,0.00,CLR,,0.00,WeatherDisplay:10.37,2013-02-17 14:23:00,
2013-02-17 09:27:00,19.5,18.1,29.35,North,355,6.9,6.9,94,0.00,,,0.04,WeatherDisplay:10.37,2013-02-17 14:27:00,
2013-02-17 09:28:00,19.4,18.0,29.36,NNW,338,5.0,18.0,94,0.00,CLR,,0.00,WeatherDisplay:10.37,2013-02-17 14:28:00,
2013-02-17 09:32:00,19.7,18.3,29.36,North,355,11.5,11.5,94,0.00,,,0.04,WeatherDisplay:10.37,2013-02-17 14:32:00,
2013-02-17 09:37:00,19.7,18.3,29.36,NNW,331,4.6,4.6,94,0.00,,,0.04,WeatherDisplay:10.37,2013-02-17 14:37:00,
2013-02-17 09:42:00,19.5,17.8,29.36,NW,323,17.3,17.3,93,0.00,,,0.04,WeatherDisplay:10.37,2013-02-17 14:42:00,
2013-02-17 09:47:00,19.4,17.7,29.36,North,355,13.8,13.8,93,0.00,,,0.04,WeatherDisplay:10.37,2013-02-17 14:47:00,
2013-02-17 09:52:00,19.4,17.7,29.36,North,360,5.8,5.8,93,0.00,,,0.04,WeatherDisplay:10.37,2013-02-17 14:52:00,
2013-02-17 09:57:00,19.4,17.7,29.36,NNW,342,11.5,11.5,93,0.00,,,0.04,WeatherDisplay:10.37,2013-02-17 14:57:00,
2013-02-17 10:02:00,19.4,17.7,29.36,NNW,337,11.5,11.5,93,0.00,,,0.04,WeatherDisplay:10.37,2013-02-17 15:02:00,
2013-02-17 10:03:00,19.5,17.8,29.36,NNW,345,5.0,20.0,93,0.00,CLR,,0.00,WeatherDisplay:10.37,2013-02-17 15:03:00,
2013-02-17 10:07:00,19.4,17.7,29.35,North,9,5.8,5.8,93,0.00,,,0.04,WeatherDisplay:10.37,2013-02-17 15:07:00,
2013-02-17 10:08:00,19.5,17.8,29.36,North,356,5.0,17.0,93,0.00,CLR,,0.00,WeatherDisplay:10.37,2013-02-17 15:08:00,
2013-02-17 10:12:00,19.5,17.8,29.36,North,360,11.5,11.5,93,0.00,,,0.04,WeatherDisplay:10.37,2013-02-17 15:12:00,
2013-02-17 10:13:00,19.5,17.8,29.36,North,0,5.0,17.0,93,0.00,CLR,,0.00,WeatherDisplay:10.37,2013-02-17 15:13:00,
2013-02-17 10:17:00,19.6,17.9,29.36,WNW,287,5.8,5.8,93,0.00,,,0.04,WeatherDisplay:10.37,2013-02-17 15:17:00,
2013-02-17 10:18:00,19.5,17.8,29.36,North,0,5.0,17.0,93,0.00,CLR,,0.00,WeatherDisplay:10.37,2013-02-17 15:18:00,
2013-02-17 10:22:00,19.7,18.0,29.36,NW,313,9.2,9.2,93,0.00,,,0.04,WeatherDisplay:10.37,2013-02-17 15:22:00,
2013-02-17 10:23:00,19.5,17.8,29.36,North,0,5.0,17.0,93,0.00,CLR,,0.00,WeatherDisplay:10.37,2013-02-17 15:23:00,
2013-02-17 10:27:00,19.7,18.0,29.36,East,84,3.5,3.5,93,0.00,,,0.04,WeatherDisplay:10.37,2013-02-17 15:27:00,
2013-02-17 10:28:00,19.5,17.8,29.36,North,0,5.0,17.0,93,0.00,CLR,,0.00,WeatherDisplay:10.37,2013-02-17 15:28:00,
2013-02-17 10:32:00,19.8,18.1,29.37,NNW,340,4.6,4.6,93,0.00,,,0.04,WeatherDisplay:10.37,2013-02-17 15:32:00,
2013-02-17 10:37:00,19.8,18.1,29.37,NNW,338,15.0,15.0,93,0.00,,,0.04,WeatherDisplay:10.37,2013-02-17 15:37:00,
2013-02-17 10:42:00,19.7,18.0,29.37,NNW,333,9.2,9.2,93,0.00,,,0.04,WeatherDisplay:10.37,2013-02-17 15:42:00,
2013-02-17 10:47:00,19.7,18.0,29.37,North,5,11.5,11.5,93,0.00,,,0.04,WeatherDisplay:10.37,2013-02-17 15:47:00,
2013-02-17 10:52:00,19.8,18.1,29.37,NNE,25,11.5,11.5,93,0.00,,,0.04,WeatherDisplay:10.37,2013-02-17 15:52:00,
2013-02-17 10:57:00,19.8,18.1,29.37,WNW,300,3.5,3.5,93,0.00,,,0.04,WeatherDisplay:10.37,2013-02-17 15:57:00,
2013-02-17 11:02:00,19.9,18.2,29.37,NNW,346,3.5,3.5,93,0.00,,,0.04,WeatherDisplay:10.37,2013-02-17 16:02:00,
2013-02-17 11:03:00,19.9,18.2,29.37,North,353,3.0,21.0,93,0.00,CLR,,0.00,WeatherDisplay:10.37,2013-02-17 16:03:00,
2013-02-17 11:07:00,20.0,18.3,29.37,NW,306,12.7,12.7,93,0.00,,,0.04,WeatherDisplay:10.37,2013-02-17 16:07:00,
2013-02-17 11:08:00,19.9,18.2,29.37,NNW,341,3.0,21.0,93,0.00,CLR,,0.00,WeatherDisplay:10.37,2013-02-17 16:08:00,
2013-02-17 11:12:00,20.0,18.3,29.37,North,355,3.5,3.5,93,0.00,,,0.04,WeatherDisplay:10.37,2013-02-17 16:12:00,
2013-02-17 11:13:00,19.9,18.2,29.37,NNW,338,3.0,21.0,93,0.00,CLR,,0.00,WeatherDisplay:10.37,2013-02-17 16:13:00,
2013-02-17 11:17:00,20.1,18.4,29.36,NNW,342,11.5,11.5,93,0.00,,,0.04,WeatherDisplay:10.37,2013-02-17 16:17:00,
2013-02-17 11:18:00,19.9,18.2,29.37,NNW,338,3.0,21.0,93,0.00,CLR,,0.00,WeatherDisplay:10.37,2013-02-17 16:18:00,
2013-02-17 11:22:00,20.2,18.5,29.36,NW,313,10.4,10.4,93,0.00,,,0.04,WeatherDisplay:10.37,2013-02-17 16:22:00,
2013-02-17 11:23:00,19.9,18.2,29.37,NNW,338,3.0,21.0,93,0.00,CLR,,0.00,WeatherDisplay:10.37,2013-02-17 16:23:00,
2013-02-17 11:27:00,20.3,18.6,29.36,North,9,16.1,16.1,93,0.00,,,0.04,WeatherDisplay:10.37,2013-02-17 16:27:00,
2013-02-17 11:28:00,19.9,18.2,29.37,NNW,338,3.0,21.0,93,0.00,CLR,,0.00,WeatherDisplay:10.37,2013-02-17 16:28:00,
2013-02-17 11:32:00,20.4,18.7,29.36,North,355,9.2,9.2,93,0.00,,,0.04,WeatherDisplay:10.37,2013-02-17 16:32:00,
2013-02-17 11:37:00,20.5,18.8,29.36,WNW,302,11.5,11.5,93,0.00,,,0.04,WeatherDisplay:10.37,2013-02-17 16:37:00,
2013-02-17 11:42:00,20.6,18.9,29.36,North,355,9.2,9.2,93,0.00,,,0.04,WeatherDisplay:10.37,2013-02-17 16:42:00,
2013-02-17 11:47:00,20.7,18.7,29.36,NNW,344,4.6,4.6,92,0.00,,,0.04,WeatherDisplay:10.37,2013-02-17 16:47:00,
2013-02-17 11:52:00,20.8,18.8,29.36,NW,322,10.4,10.4,92,0.00,,,0.04,WeatherDisplay:10.37,2013-02-17 16:52:00,
2013-02-17 11:57:00,21.0,19.0,29.36,North,349,6.9,6.9,92,0.00,,,0.04,WeatherDisplay:10.37,2013-02-17 16:57:00,
2013-02-17 12:02:00,21.1,18.9,29.36,NNW,339,10.4,10.4,91,0.00,,,0.04,WeatherDisplay:10.37,2013-02-17 17:02:00,
2013-02-17 12:03:00,21.4,19.2,29.36,NNW,338,3.0,21.0,91,0.00,CLR,,0.00,WeatherDisplay:10.37,2013-02-17 17:03:00,
2013-02-17 12:07:00,21.3,19.1,29.36,North,349,8.1,8.1,91,0.00,,,0.04,WeatherDisplay:10.37,2013-02-17 17:07:00,
2013-02-17 12:08:00,21.4,19.2,29.36,NNW,338,3.0,16.0,91,0.00,CLR,,0.00,WeatherDisplay:10.37,2013-02-17 17:08:00,
2013-02-17 12:12:00,21.5,19.0,29.36,North,349,3.5,0.0,90,0.00,,,0.04,WeatherDisplay:10.37,2013-02-17 17:12:00,
2013-02-17 12:13:00,21.4,19.2,29.36,NNW,338,3.0,16.0,91,0.00,CLR,,0.00,WeatherDisplay:10.37,2013-02-17 17:13:00,
2013-02-17 12:17:00,21.7,19.0,29.36,East,81,4.6,4.6,89,0.00,,,0.04,WeatherDisplay:10.37,2013-02-17 17:17:00,
2013-02-17 12:18:00,21.4,19.2,29.36,NNW,338,3.0,16.0,91,0.00,CLR,,0.00,WeatherDisplay:10.37,2013-02-17 17:18:00,
2013-02-17 12:22:00,21.9,18.9,29.36,NNE,17,12.7,12.7,88,0.00,,,0.04,WeatherDisplay:10.37,2013-02-17 17:22:00,
2013-02-17 12:23:00,21.4,19.2,29.36,NNW,338,3.0,16.0,91,0.00,CLR,,0.00,WeatherDisplay:10.37,2013-02-17 17:23:00,
2013-02-17 12:27:00,21.9,18.6,29.36,North,355,12.0,12.0,87,0.00,,,0.04,WeatherDisplay:10.37,2013-02-17 17:27:00,
2013-02-17 12:28:00,21.4,19.2,29.36,NNW,338,3.0,16.0,91,0.00,CLR,,0.00,WeatherDisplay:10.37,2013-02-17 17:28:00,
2013-02-17 12:32:00,22.1,18.8,29.36,NW,315,6.9,6.9,87,0.00,,,0.04,WeatherDisplay:10.37,2013-02-17 17:32:00,
2013-02-17 12:37:00,22.4,19.1,29.36,NW,321,4.0,4.0,87,0.00,,,0.04,WeatherDisplay:10.37,2013-02-17 17:37:00,
2013-02-17 12:42:00,22.5,18.4,29.37,NNE,12,17.3,17.3,84,0.00,,,0.04,WeatherDisplay:10.37,2013-02-17 17:42:00,
2013-02-17 12:47:00,22.4,18.0,29.37,WSW,256,10.4,10.4,83,0.00,,,0.04,WeatherDisplay:10.37,2013-02-17 17:47:00,
2013-02-17 12:52:00,22.6,18.2,29.37,North,360,17.3,17.3,83,0.00,,,0.04,WeatherDisplay:10.37,2013-02-17 17:52:00,
2013-02-17 12:57:00,22.8,18.4,29.37,North,10,9.2,9.2,83,0.00,,,0.04,WeatherDisplay:10.37,2013-02-17 17:57:00,
2013-02-17 13:02:00,23.0,18.0,29.37,West,275,14.0,14.0,81,0.00,,,0.04,WeatherDisplay:10.37,2013-02-17 18:02:00,
2013-02-17 13:03:00,23.1,17.6,29.38,NNW,338,3.0,18.0,79,0.00,CLR,,0.00,WeatherDisplay:10.37,2013-02-17 18:03:00,
2013-02-17 13:07:00,23.0,17.5,29.37,NNW,328,4.6,4.6,79,0.00,,,0.04,WeatherDisplay:10.37,2013-02-17 18:07:00,
2013-02-17 13:08:00,23.1,17.6,29.38,NNW,338,3.0,18.0,79,0.00,CLR,,0.00,WeatherDisplay:10.37,2013-02-17 18:08:00,
2013-02-17 13:12:00,23.1,17.0,29.38,North,350,18.4,18.4,77,0.00,,,0.04,WeatherDisplay:10.37,2013-02-17 18:12:00,
2013-02-17 13:13:00,23.1,17.6,29.38,NNW,338,3.0,18.0,79,0.00,CLR,,0.00,WeatherDisplay:10.37,2013-02-17 18:13:00,
2013-02-17 13:17:00,23.0,16.6,29.38,NNW,347,19.6,19.6,76,0.00,,,0.04,WeatherDisplay:10.37,2013-02-17 18:17:00,
2013-02-17 13:18:00,23.1,17.6,29.38,NNW,338,3.0,18.0,79,0.00,CLR,,0.00,WeatherDisplay:10.37,2013-02-17 18:18:00,
2013-02-17 13:22:00,22.9,15.8,29.38,North,350,16.0,16.0,74,0.00,,,0.04,WeatherDisplay:10.37,2013-02-17 18:22:00,
2013-02-17 13:23:00,23.1,17.6,29.38,NNW,338,3.0,18.0,79,0.00,CLR,,0.00,WeatherDisplay:10.37,2013-02-17 18:23:00,
2013-02-17 13:27:00,22.9,15.8,29.38,NW,313,11.5,11.5,74,0.00,,,0.04,WeatherDisplay:10.37,2013-02-17 18:27:00,
2013-02-17 13:28:00,23.1,17.6,29.38,NNW,338,3.0,18.0,79,0.00,CLR,,0.00,WeatherDisplay:10.37,2013-02-17 18:28:00,
2013-02-17 13:32:00,22.9,15.8,29.39,West,272,15.0,15.0,74,0.00,RA,,0.00,WeatherDisplay:10.37,2013-02-17 18:32:00,
2013-02-17 13:37:00,22.8,14.5,29.39,NNW,342,13.8,13.8,70,0.00,RA,,0.00,WeatherDisplay:10.37,2013-02-17 18:37:00,
2013-02-17 13:42:00,22.6,14.3,29.39,West,275,13.8,13.8,70,0.00,,,0.00,WeatherDisplay:10.37,2013-02-17 18:42:00,
2013-02-17 13:47:00,22.6,14.3,29.39,West,275,12.7,12.7,70,0.00,,,0.00,WeatherDisplay:10.37,2013-02-17 18:47:00,
2013-02-17 13:52:00,22.7,14.7,29.39,NNE,28,11.5,11.5,71,0.00,,,0.00,WeatherDisplay:10.37,2013-02-17 18:52:00,
2013-02-17 13:57:00,22.8,14.5,29.40,WNW,301,12.7,12.7,70,0.00,,,0.00,WeatherDisplay:10.37,2013-02-17 18:57:00,
2013-02-17 14:02:00,22.7,14.7,29.40,NNW,344,3.5,3.5,71,0.00,,,0.00,WeatherDisplay:10.37,2013-02-17 19:02:00,
2013-02-17 14:03:00,22.7,14.4,29.40,NNW,338,3.0,27.0,70,0.00,CLR,,0.00,WeatherDisplay:10.37,2013-02-17 19:03:00,
2013-02-17 14:07:00,22.8,14.5,29.40,NNE,17,26.5,26.5,70,0.00,,,0.00,WeatherDisplay:10.37,2013-02-17 19:07:00,
2013-02-17 14:08:00,22.7,14.4,29.40,NNW,338,3.0,27.0,70,0.00,CLR,,0.00,WeatherDisplay:10.37,2013-02-17 19:08:00,
2013-02-17 14:12:00,22.5,14.2,29.41,WNW,282,11.5,11.5,70,0.00,,,0.00,WeatherDisplay:10.37,2013-02-17 19:12:00,
2013-02-17 14:13:00,22.7,14.4,29.40,NNW,338,3.0,27.0,70,0.00,CLR,,0.00,WeatherDisplay:10.37,2013-02-17 19:13:00,
2013-02-17 14:17:00,22.4,13.8,29.41,West,261,11.5,11.5,69,0.00,,,0.00,WeatherDisplay:10.37,2013-02-17 19:17:00,
2013-02-17 14:18:00,22.7,14.4,29.40,NNW,338,3.0,27.0,70,0.00,CLR,,0.00,WeatherDisplay:10.37,2013-02-17 19:18:00,
2013-02-17 14:22:00,22.4,14.1,29.41,North,355,8.1,8.1,70,0.00,,,0.00,WeatherDisplay:10.37,2013-02-17 19:22:00,
2013-02-17 14:23:00,22.7,14.4,29.40,NNW,338,3.0,27.0,70,0.00,CLR,,0.00,WeatherDisplay:10.37,2013-02-17 19:23:00,
2013-02-17 14:27:00,22.3,13.3,29.41,WNW,298,24.2,24.2,68,0.00,,,0.00,WeatherDisplay:10.37,2013-02-17 19:27:00,
2013-02-17 14:28:00,22.7,14.4,29.40,NNW,338,3.0,27.0,70,0.00,CLR,,0.00,WeatherDisplay:10.37,2013-02-17 19:28:00,
2013-02-17 14:32:00,22.2,12.9,29.41,NNW,347,12.7,12.7,67,0.00,,,0.00,WeatherDisplay:10.37,2013-02-17 19:32:00,
2013-02-17 14:37:00,22.2,13.2,29.41,NW,309,6.9,6.9,68,0.00,,,0.00,WeatherDisplay:10.37,2013-02-17 19:37:00,
2013-02-17 14:42:00,22.3,13.0,29.41,North,355,5.8,5.9,67,0.00,,,0.00,WeatherDisplay:10.37,2013-02-17 19:42:00,
2013-02-17 14:47:00,22.4,12.8,29.41,NNW,347,15.0,15.0,66,0.00,,,0.00,WeatherDisplay:10.37,2013-02-17 19:47:00,
2013-02-17 14:52:00,22.4,13.1,29.42,SSW,211,18.4,18.4,67,0.00,,,0.00,WeatherDisplay:10.37,2013-02-17 19:52:00,
2013-02-17 14:57:00,22.4,12.1,29.42,NE,45,15.0,15.0,64,0.00,,,0.00,WeatherDisplay:10.37,2013-02-17 19:57:00,
2013-02-17 15:02:00,22.4,12.4,29.42,WNW,294,13.8,13.8,65,0.00,,,0.00,WeatherDisplay:10.37,2013-02-17 20:02:00,
2013-02-17 15:03:00,22.3,12.3,29.42,NW,326,6.0,27.0,65,0.00,CLR,,0.00,WeatherDisplay:10.37,2013-02-17 20:03:00,
2013-02-17 15:07:00,22.4,12.1,29.42,NNW,336,13.8,13.8,64,0.00,,,0.00,WeatherDisplay:10.37,2013-02-17 20:07:00,
2013-02-17 15:08:00,22.3,12.3,29.42,NW,316,6.0,20.0,65,0.00,CLR,,0.00,WeatherDisplay:10.37,2013-02-17 20:08:00,
2013-02-17 15:12:00,22.4,13.1,29.43,NW,306,9.0,9.0,67,0.00,OVC,,0.00,WeatherDisplay:10.37,2013-02-17 20:12:00,
2013-02-17 15:13:00,22.3,12.3,29.42,NW,315,6.0,20.0,65,0.00,CLR,,0.00,WeatherDisplay:10.37,2013-02-17 20:13:00,
2013-02-17 15:17:00,22.4,12.8,29.43,WSW,254,12.7,12.7,66,0.00,OVC,,0.00,WeatherDisplay:10.37,2013-02-17 20:17:00,
2013-02-17 15:18:00,22.3,12.3,29.42,NW,315,6.0,20.0,65,0.00,CLR,,0.00,WeatherDisplay:10.37,2013-02-17 20:18:00,
2013-02-17 15:22:00,22.4,13.1,29.44,North,360,18.4,18.4,67,0.00,OVC,,0.00,WeatherDisplay:10.37,2013-02-17 20:22:00,
2013-02-17 15:23:00,22.3,12.3,29.42,NW,315,6.0,20.0,65,0.00,CLR,,0.00,WeatherDisplay:10.37,2013-02-17 20:23:00,
2013-02-17 15:27:00,22.4,12.4,29.44,NW,321,13.8,13.8,65,0.00,OVC,,0.00,WeatherDisplay:10.37,2013-02-17 20:27:00,
2013-02-17 15:28:00,22.3,12.3,29.42,NW,315,6.0,20.0,65,0.00,CLR,,0.00,WeatherDisplay:10.37,2013-02-17 20:28:00,
2013-02-17 15:32:00,22.6,12.6,29.44,North,9,11.5,11.5,65,0.00,OVC,,0.00,WeatherDisplay:10.37,2013-02-17 20:32:00,
2013-02-17 15:37:00,22.7,12.7,29.44,North,360,10.4,10.4,65,0.00,OVC,,0.00,WeatherDisplay:10.37,2013-02-17 20:37:00,
2013-02-17 15:42:00,22.7,12.7,29.44,NNW,343,6.9,6.9,65,0.00,OVC,,0.00,WeatherDisplay:10.37,2013-02-17 20:42:00,
2013-02-17 15:47:00,22.8,12.8,29.44,South,186,10.4,10.4,65,0.00,OVC,,0.00,WeatherDisplay:10.37,2013-02-17 20:47:00,
2013-02-17 15:52:00,22.9,12.9,29.45,NW,320,10.4,10.4,65,0.00,OVC,,0.00,WeatherDisplay:10.37,2013-02-17 20:52:00,
2013-02-17 15:57:00,22.9,12.2,29.45,WNW,299,17.3,17.3,63,0.00,OVC,,0.00,WeatherDisplay:10.37,2013-02-17 20:57:00,
2013-02-17 16:03:00,22.9,11.8,29.45,NW,320,15.0,15.0,62,0.00,OVC,,0.00,WeatherDisplay:10.37,2013-02-17 21:03:00,
2013-02-17 16:08:00,23.0,12.3,29.46,SW,231,10.4,10.4,63,0.00,OVC,,0.00,WeatherDisplay:10.37,2013-02-17 21:08:00,
2013-02-17 16:13:00,23.1,12.0,29.45,NNE,15,10.4,10.4,62,0.00,OVC,,0.00,WeatherDisplay:10.37,2013-02-17 21:13:00,
2013-02-17 16:18:00,23.0,11.2,29.46,NNW,327,17.3,17.3,60,0.00,OVC,,0.00,WeatherDisplay:10.37,2013-02-17 21:18:00,
2013-02-17 16:23:00,23.1,12.0,29.46,NNE,15,9.2,9.2,62,0.00,OVC,,0.00,WeatherDisplay:10.37,2013-02-17 21:23:00,
2013-02-17 16:28:00,23.1,11.6,29.46,North,9,11.5,11.5,61,0.00,OVC,,0.00,WeatherDisplay:10.37,2013-02-17 21:28:00,
2013-02-17 16:33:00,23.2,11.4,29.47,NE,34,11.5,11.5,60,0.00,OVC,,0.00,WeatherDisplay:10.37,2013-02-17 21:33:00,
2013-02-17 16:38:00,23.3,10.7,29.47,NNW,333,19.6,19.6,58,0.00,OVC,,0.00,WeatherDisplay:10.37,2013-02-17 21:38:00,
2013-02-17 16:43:00,23.4,11.2,29.47,NW,324,13.8,13.8,59,0.00,OVC,,0.00,WeatherDisplay:10.37,2013-02-17 21:43:00,
2013-02-17 16:48:00,23.5,11.6,29.47,NNE,24,15.0,15.0,60,0.00,OVC,,0.00,WeatherDisplay:10.37,2013-02-17 21:48:00,
2013-02-17 16:53:00,23.5,12.0,29.48,WNW,298,3.5,3.5,61,0.00,OVC,,0.00,WeatherDisplay:10.37,2013-02-17 21:53:00,
2013-02-17 16:58:00,23.5,10.9,29.48,WNW,291,16.1,16.1,58,0.00,OVC,,0.00,WeatherDisplay:10.37,2013-02-17 21:58:00,
2013-02-17 17:03:00,23.6,11.4,29.48,WSW,253,6.0,6.0,59,0.00,OVC,,0.00,WeatherDisplay:10.37,2013-02-17 22:03:00,
2013-02-17 17:08:00,23.7,10.7,29.48,WNW,303,4.6,4.6,57,0.00,OVC,,0.00,WeatherDisplay:10.37,2013-02-17 22:08:00,
2013-02-17 17:13:00,23.8,10.8,29.49,WNW,287,4.6,4.6,57,0.00,OVC,,0.00,WeatherDisplay:10.37,2013-02-17 22:13:00,
2013-02-17 17:18:00,23.8,10.8,29.49,NNE,22,17.3,17.3,57,0.00,OVC,,0.00,WeatherDisplay:10.37,2013-02-17 22:18:00,
2013-02-17 17:23:00,23.9,10.5,29.49,West,265,17.3,17.3,56,0.00,OVC,,0.00,WeatherDisplay:10.37,2013-02-17 22:23:00,
2013-02-17 17:28:00,24.0,11.0,29.49,NNE,13,4.0,4.0,57,0.00,OVC,,0.00,WeatherDisplay:10.37,2013-02-17 22:28:00,
2013-02-17 17:33:00,24.1,9.8,29.50,NW,325,13.8,13.8,54,0.00,OVC,,0.00,WeatherDisplay:10.37,2013-02-17 22:33:00,
2013-02-17 17:38:00,24.1,10.2,29.50,NW,315,7.0,7.0,55,0.00,OVC,,0.00,WeatherDisplay:10.37,2013-02-17 22:38:00,
2013-02-17 17:43:00,24.2,9.9,29.50,WSW,248,11.5,11.5,54,0.00,OVC,,0.00,WeatherDisplay:10.37,2013-02-17 22:43:00,
2013-02-17 17:48:00,24.3,9.2,29.51,North,11,11.5,11.5,52,0.00,OVC,,0.00,WeatherDisplay:10.37,2013-02-17 22:48:00,
2013-02-17 17:53:00,24.4,9.3,29.51,NW,326,11.5,11.5,52,0.00,OVC,,0.00,WeatherDisplay:10.37,2013-02-17 22:53:00,
2013-02-17 17:58:00,24.5,8.9,29.51,NNW,344,6.9,6.9,51,0.00,OVC,,0.00,WeatherDisplay:10.37,2013-02-17 22:58:00,
2013-02-17 18:03:00,24.5,8.5,29.52,West,279,12.7,12.7,50,0.00,OVC,,0.00,WeatherDisplay:10.37,2013-02-17 23:03:00,
2013-02-17 18:08:00,24.5,8.9,29.51,NNE,15,17.3,17.3,51,0.00,OVC,,0.00,WeatherDisplay:10.37,2013-02-17 23:08:00,
2013-02-17 18:13:00,24.6,8.6,29.52,WNW,298,13.8,13.8,50,0.00,OVC,,0.00,WeatherDisplay:10.37,2013-02-17 23:13:00,
2013-02-17 18:18:00,24.7,7.8,29.52,West,268,16.1,16.1,48,0.00,OVC,,0.00,WeatherDisplay:10.37,2013-02-17 23:18:00,
2013-02-17 18:23:00,24.7,8.7,29.52,North,5,12.7,12.7,50,0.00,OVC,,0.00,WeatherDisplay:10.37,2013-02-17 23:23:00,
2013-02-17 18:28:00,24.7,7.8,29.52,WNW,297,11.5,11.5,48,0.00,OVC,,0.00,WeatherDisplay:10.37,2013-02-17 23:28:00,
2013-02-17 18:33:00,24.8,7.9,29.52,NNW,338,10.4,10.4,48,0.00,OVC,,0.00,WeatherDisplay:10.37,2013-02-17 23:33:00,
2013-02-17 18:38:00,24.8,7.9,29.52,NW,315,10.4,10.4,48,0.00,OVC,,0.00,WeatherDisplay:10.37,2013-02-17 23:38:00,
2013-02-17 18:43:00,24.8,7.4,29.53,NE,38,8.1,8.1,47,0.00,OVC,,0.00,WeatherDisplay:10.37,2013-02-17 23:43:00,
2013-02-17 18:48:00,24.8,7.4,29.53,WNW,287,11.5,11.5,47,0.00,OVC,,0.00,WeatherDisplay:10.37,2013-02-17 23:48:00,
2013-02-17 18:53:00,24.8,7.4,29.53,NNW,344,11.5,11.5,47,0.00,OVC,,0.00,WeatherDisplay:10.37,2013-02-17 23:53:00,
2013-02-17 18:58:00,24.8,7.4,29.53,NW,323,11.0,11.0,47,0.00,OVC,,0.00,WeatherDisplay:10.37,2013-02-17 23:58:00,
2013-02-17 19:03:00,24.8,6.9,29.53,WNW,300,13.8,13.8,46,0.00,OVC,,0.00,WeatherDisplay:10.37,2013-02-18 00:03:00,
2013-02-17 19:08:00,24.7,6.8,29.54,NNE,28,16.1,16.1,46,0.00,OVC,,0.00,WeatherDisplay:10.37,2013-02-18 00:08:00,
2013-02-17 19:13:00,24.6,6.3,29.54,NNW,343,16.1,16.1,45,0.00,OVC,,0.00,WeatherDisplay:10.37,2013-02-18 00:13:00,
2013-02-17 19:18:00,24.7,7.3,29.54,NNE,25,6.9,6.9,47,0.00,OVC,,0.00,WeatherDisplay:10.37,2013-02-18 00:18:00,
2013-02-17 19:23:00,24.6,6.7,29.54,West,275,13.8,13.8,46,0.00,OVC,,0.00,WeatherDisplay:10.37,2013-02-18 00:23:00,
2013-02-17 19:28:00,24.6,6.7,29.54,WNW,298,6.9,6.9,46,0.00,OVC,,0.00,WeatherDisplay:10.37,2013-02-18 00:28:00,
2013-02-17 19:33:00,24.6,6.7,29.54,NNW,343,10.4,10.4,46,0.00,OVC,,0.00,WeatherDisplay:10.37,2013-02-18 00:33:00,
2013-02-17 19:38:00,24.5,7.1,29.54,NNE,19,4.6,4.6,47,0.00,OVC,,0.00,WeatherDisplay:10.37,2013-02-18 00:38:00,
2013-02-17 19:43:00,24.3,7.9,29.54,NNW,340,5.8,5.8,49,0.00,OVC,,0.00,WeatherDisplay:10.37,2013-02-18 00:43:00,
2013-02-17 19:48:00,24.2,7.3,29.55,WNW,285,15.0,15.0,48,0.00,OVC,,0.00,WeatherDisplay:10.37,2013-02-18 00:48:00,
2013-02-17 19:53:00,23.9,7.0,29.55,WNW,288,15.0,15.0,48,0.00,OVC,,0.00,WeatherDisplay:10.37,2013-02-18 00:53:00,
2013-02-17 19:58:00,23.6,7.2,29.55,North,360,11.5,11.5,49,0.00,OVC,,0.00,WeatherDisplay:10.37,2013-02-18 00:58:00,
2013-02-17 20:03:00,23.3,6.9,29.55,NNW,327,13.8,13.8,49,0.00,OVC,,0.00,WeatherDisplay:10.37,2013-02-18 01:03:00,
2013-02-17 20:08:00,23.1,7.6,29.55,NNW,340,4.0,4.0,51,0.00,OVC,,0.00,WeatherDisplay:10.37,2013-02-18 01:08:00,
2013-02-17 20:13:00,22.9,7.4,29.56,WNW,298,4.6,4.6,51,0.00,OVC,,0.00,WeatherDisplay:10.37,2013-02-18 01:13:00,
2013-02-17 20:18:00,22.8,7.4,29.56,NNW,331,10.4,10.4,51,0.00,OVC,,0.00,WeatherDisplay:10.37,2013-02-18 01:18:00,
2013-02-17 20:23:00,22.6,7.2,29.56,WSW,250,12.7,12.7,51,0.00,OVC,,0.00,WeatherDisplay:10.37,2013-02-18 01:23:00,
2013-02-17 20:28:00,22.4,7.0,29.56,NNW,329,5.8,5.8,51,0.00,OVC,,0.00,WeatherDisplay:10.37,2013-02-18 01:28:00,
2013-02-17 20:33:00,22.2,7.2,29.56,North,360,19.6,19.6,52,0.00,OVC,,0.00,WeatherDisplay:10.37,2013-02-18 01:33:00,
2013-02-17 20:38:00,22.0,7.0,29.57,NNW,345,19.6,19.6,52,0.00,OVC,,0.00,WeatherDisplay:10.37,2013-02-18 01:38:00,
2013-02-17 20:43:00,21.8,6.8,29.58,NNW,327,16.1,16.1,52,0.00,OVC,,0.00,WeatherDisplay:10.37,2013-02-18 01:43:00,
2013-02-17 20:48:00,21.6,7.1,29.58,WNW,290,10.4,10.4,53,0.00,OVC,,0.00,WeatherDisplay:10.37,2013-02-18 01:48:00,
2013-02-17 20:53:00,21.3,6.8,29.58,NW,319,11.5,11.5,53,0.00,OVC,,0.00,WeatherDisplay:10.37,2013-02-18 01:53:00,
2013-02-17 20:58:00,21.1,7.0,29.58,WNW,284,21.0,21.0,54,0.00,OVC,,0.00,WeatherDisplay:10.37,2013-02-18 01:58:00,
2013-02-17 21:03:00,20.9,6.8,29.58,NNE,24,3.5,3.5,54,0.00,OVC,,0.00,WeatherDisplay:10.37,2013-02-18 02:03:00,
2013-02-17 21:08:00,20.7,6.7,29.59,NNW,327,12.7,12.7,54,0.00,OVC,,0.00,WeatherDisplay:10.37,2013-02-18 02:08:00,
2013-02-17 21:13:00,20.5,6.5,29.59,WSW,258,9.2,9.2,54,0.00,OVC,,0.00,WeatherDisplay:10.37,2013-02-18 02:13:00,
2013-02-17 21:18:00,20.3,7.1,29.60,NNW,336,8.1,8.1,56,0.00,OVC,,0.00,WeatherDisplay:10.37,2013-02-18 02:18:00,
2013-02-17 21:23:00,20.1,6.5,29.60,NNE,21,19.6,19.6,55,0.00,OVC,,0.00,WeatherDisplay:10.37,2013-02-18 02:23:00,
2013-02-17 21:28:00,20.0,6.4,29.61,WNW,284,13.8,13.8,55,0.00,OVC,,0.00,WeatherDisplay:10.37,2013-02-18 02:28:00,
2013-02-17 21:33:00,19.9,6.3,29.61,NW,322,11.5,11.5,55,0.00,OVC,,0.00,WeatherDisplay:10.37,2013-02-18 02:33:00,
2013-02-17 21:38:00,19.8,6.6,29.61,WNW,292,19.6,19.6,56,0.00,OVC,,0.00,WeatherDisplay:10.37,2013-02-18 02:38:00,
2013-02-17 21:43:00,19.7,6.1,29.61,West,259,11.5,11.5,55,0.00,OVC,,0.00,WeatherDisplay:10.37,2013-02-18 02:43:00,
2013-02-17 21:48:00,19.7,6.1,29.62,NE,37,5.8,5.8,55,0.00,OVC,,0.00,WeatherDisplay:10.37,2013-02-18 02:48:00,
2013-02-17 21:53:00,19.7,6.5,29.62,North,355,3.5,3.5,56,0.00,OVC,,0.00,WeatherDisplay:10.37,2013-02-18 02:53:00,
2013-02-17 21:58:00,19.7,6.5,29.62,NNW,331,2.3,2.3,56,0.00,OVC,,0.00,WeatherDisplay:10.37,2013-02-18 02:58:00,
2013-02-17 22:03:00,19.6,6.4,29.62,NNW,338,9.0,9.0,56,0.00,OVC,,0.00,WeatherDisplay:10.37,2013-02-18 03:03:00,
2013-02-17 22:08:00,19.6,6.0,29.62,WSW,242,11.5,11.5,55,0.00,OVC,,0.00,WeatherDisplay:10.37,2013-02-18 03:08:00,
2013-02-17 22:13:00,19.6,6.4,29.63,NW,317,0.0,0.0,56,0.00,OVC,,0.00,WeatherDisplay:10.37,2013-02-18 03:13:00,
2013-02-17 22:18:00,19.5,5.9,29.63,NW,321,18.4,18.4,55,0.00,OVC,,0.00,WeatherDisplay:10.37,2013-02-18 03:18:00,
2013-02-17 22:23:00,19.3,5.7,29.63,NW,325,11.5,11.5,55,0.00,OVC,,0.00,WeatherDisplay:10.37,2013-02-18 03:23:00,
2013-02-17 22:28:00,19.3,5.7,29.63,NW,325,9.2,9.2,55,0.00,OVC,,0.00,WeatherDisplay:10.37,2013-02-18 03:28:00,
2013-02-17 22:34:00,19.2,5.7,29.64,NW,306,14.0,14.0,55,0.00,OVC,,0.00,WeatherDisplay:10.37,2013-02-18 03:34:00,
2013-02-17 22:39:00,19.1,6.0,29.63,North,5,3.5,3.5,56,0.00,OVC,,0.00,WeatherDisplay:10.37,2013-02-18 03:39:00,
2013-02-17 22:44:00,19.0,6.3,29.64,WNW,294,11.5,11.5,57,0.00,OVC,,0.00,WeatherDisplay:10.37,2013-02-18 03:44:00,
2013-02-17 22:49:00,18.9,5.8,29.64,ESE,121,7.0,7.0,56,0.00,OVC,,0.00,WeatherDisplay:10.37,2013-02-18 03:49:00,
2013-02-17 22:54:00,18.8,5.7,29.65,NW,325,9.2,9.2,56,0.00,OVC,,0.00,WeatherDisplay:10.37,2013-02-18 03:54:00,
2013-02-17 22:59:00,18.6,5.1,29.65,WNW,291,12.0,12.0,55,0.00,OVC,,0.00,WeatherDisplay:10.37,2013-02-18 03:59:00,
2013-02-17 23:03:00,18.4,4.9,29.66,NW,315,3.0,26.0,55,0.00,CLR,,0.00,WeatherDisplay:10.37,2013-02-18 04:03:00,
2013-02-17 23:04:00,18.5,5.0,29.66,NW,315,26.5,26.5,55,0.00,OVC,,0.00,WeatherDisplay:10.37,2013-02-18 04:04:00,
2013-02-17 23:08:00,18.4,4.9,29.66,NW,315,3.0,26.0,55,0.00,CLR,,0.00,WeatherDisplay:10.37,2013-02-18 04:08:00,
2013-02-17 23:09:00,18.4,4.9,29.66,North,355,15.0,15.0,55,0.00,OVC,,0.00,WeatherDisplay:10.37,2013-02-18 04:09:00,
2013-02-17 23:13:00,18.4,4.9,29.66,NW,315,3.0,26.0,55,0.00,CLR,,0.00,WeatherDisplay:10.37,2013-02-18 04:13:00,
2013-02-17 23:14:00,18.2,5.1,29.66,NW,312,13.0,13.0,56,0.00,OVC,,0.00,WeatherDisplay:10.37,2013-02-18 04:14:00,
2013-02-17 23:18:00,18.4,4.9,29.66,NW,315,3.0,26.0,55,0.00,CLR,,0.00,WeatherDisplay:10.37,2013-02-18 04:18:00,
2013-02-17 23:19:00,18.2,5.5,29.66,NNW,342,12.7,12.7,57,0.00,OVC,,0.00,WeatherDisplay:10.37,2013-02-18 04:19:00,
2013-02-17 23:23:00,18.4,4.9,29.66,NW,315,3.0,26.0,55,0.00,CLR,,0.00,WeatherDisplay:10.37,2013-02-18 04:23:00,
2013-02-17 23:24:00,18.0,4.9,29.66,NW,306,10.0,10.0,56,0.00,OVC,,0.00,WeatherDisplay:10.37,2013-02-18 04:24:00,
2013-02-17 23:28:00,18.4,4.9,29.66,NW,315,3.0,26.0,55,0.00,CLR,,0.00,WeatherDisplay:10.37,2013-02-18 04:28:00,
2013-02-17 23:29:00,17.9,4.8,29.66,WNW,300,6.9,6.9,56,0.00,OVC,,0.00,WeatherDisplay:10.37,2013-02-18 04:29:00,
2013-02-17 23:34:00,17.9,4.4,29.67,WNW,291,13.8,13.8,55,0.00,OVC,,0.00,WeatherDisplay:10.37,2013-02-18 04:34:00,
2013-02-17 23:39:00,17.8,4.7,29.66,WNW,295,14.0,14.0,56,0.00,OVC,,0.00,WeatherDisplay:10.37,2013-02-18 04:39:00,
2013-02-17 23:44:00,17.7,5.0,29.67,NW,317,2.3,2.3,57,0.00,OVC,,0.00,WeatherDisplay:10.37,2013-02-18 04:44:00,
2013-02-17 23:49:00,17.6,4.9,29.67,WSW,256,4.0,4.0,57,0.00,OVC,,0.00,WeatherDisplay:10.37,2013-02-18 04:49:00,
2013-02-17 23:54:00,17.4,4.7,29.67,NNW,343,6.9,6.9,57,0.00,OVC,,0.00,WeatherDisplay:10.37,2013-02-18 04:54:00,
2013-02-17 23:59:00,17.3,4.7,29.68,NW,325,6.9,6.9,57,0.00,OVC,,0.00,WeatherDisplay:10.37,2013-02-18 04:59:00,